This is the latest recevied weather packets stored in our database for station/object OK2ILA-14. If no packets are shown the sender has not sent any weather packets the latest 10 day(s).
| Time | Temp. | Humidity | Pressure | Rain* | Wind** | Luminosity | Snow |
|---|---|---|---|---|---|---|---|
| 1778000051 | 24.44° C | 32% | 1004.9 hPa | - | - | - | - |
| 1777999451 | 25° C | 30% | 1005 hPa | - | - | - | - |
| 1777998850 | 25.56° C | 28% | 1005.1 hPa | - | - | - | - |
| 1777998250 | 26.11° C | 25% | 1005.1 hPa | - | - | - | - |
| 1777997650 | 26.67° C | 23% | 1005.2 hPa | - | - | - | - |
| 1777997050 | 26.67° C | 20% | 1005.3 hPa | - | - | - | - |
| 1777996450 | 26.67° C | 19% | 1005.4 hPa | - | - | - | - |
| 1777995849 | 27.22° C | 18% | 1005.3 hPa | - | - | - | - |
| 1777995249 | 27.78° C | 20% | 1005.3 hPa | - | - | - | - |
| 1777994649 | 27.22° C | 21% | 1005.3 hPa | - | - | - | - |
| 1777994049 | 27.78° C | 20% | 1005.4 hPa | - | - | - | - |
| 1777993449 | 27.78° C | 21% | 1005.4 hPa | - | - | - | - |
| 1777992849 | 27.78° C | 21% | 1005.4 hPa | - | - | - | - |
| 1777992249 | 27.78° C | 21% | 1005.4 hPa | - | - | - | - |
| 1777991656 | 27.22° C | 20% | 1005.7 hPa | - | - | - | - |
| 1777991048 | 27.78° C | 20% | 1005.8 hPa | - | - | - | - |
| 1777990448 | 27.78° C | 20% | 1005.7 hPa | - | - | - | - |
| 1777989848 | 26.11° C | 22% | 1005.8 hPa | - | - | - | - |
| 1777989248 | 28.33° C | 19% | 1005.9 hPa | - | - | - | - |
| 1777988647 | 28.33° C | 21% | 1006 hPa | - | - | - | - |
| 1777988047 | 26.11° C | 22% | 1006.1 hPa | - | - | - | - |
| 1777987447 | 25.56° C | 21% | 1006.1 hPa | - | - | - | - |
| 1777986847 | 25.56° C | 22% | 1006.1 hPa | - | - | - | - |
| 1777986247 | 26.11° C | 22% | 1006.4 hPa | - | - | - | - |
| 1777985647 | 27.22° C | 21% | 1006.4 hPa | - | - | - | - |
* Rain since midnight (hover to see other rain measurements)
** Current wind speed in m/s (hover to see current wind gust speed)